Ikermiuarsuk

KL  EN  DA
ASIAQ
Weather Now GREENLAND SURVEY
Updated [WGT/WGST] Temperature [°C] Wind [m/s] Air pressure [hPa] Relative humidity [%] Precipitation [mm]
Present Wind chill Speed Max
30.11 16:00-1,7-11,719,6 ⇓25,798579n/a
30.11 15:00-2,3-12,318,5 ⇓22,798683n/a
30.11 14:00-2,9-13,017,5 ⇓22,198892n/a
30.11 13:00-3,1-12,916,0 ⇓21,199091n/a
30.11 12:00-3,5-13,817,5 ⇓23,299290n/a
30.11 11:00-3,9-14,317,5 ⇓23,299491n/a
30.11 10:00-3,9-14,518,0 ⇓24,299693n/a
30.11 09:00-3,9-14,116,5 ⇓21,199793n/a
30.11 08:00-3,9-14,317,5 ⇓21,199893n/a
30.11 07:00-3,9-14,217,0 ⇓21,199993n/a
30.11 06:00-3,9-14,217,0 ⇓20,6100192n/a
30.11 05:00-4,2-14,114,9 ⇓18,0100294n/a
30.11 04:00-3,5-12,512,4 ⇓17,5100373n/a
30.11 03:00-3,2-12,112,4 ⇓14,9100576n/a
30.11 02:00-3,3-11,39,8 ⇓12,4100677n/a
30.11 01:00-3,7-11,28,2 ⇓10,3100771n/a
30.11 00:00-3,3-10,06,7 ⇓8,8100864n/a
29.11 23:00-3,5-10,06,2 ⇓7,7101064n/a
29.11 22:00-3,7-8,53,6 ⇓4,1101065n/a
29.11 21:00-3,6-7,42,6 ⇖3,6101170n/a
29.11 20:00-3,7-6,92,1 ⇗2,6101175n/a
29.11 19:00-3,9-6,21,5 ⇓2,1101164n/a
29.11 18:00-3,90,01,0 ⇓1,5101167n/a
29.11 17:00-4,0-6,31,5 ⇓2,6101070n/a
29.11 16:00-3,90,01,0 ⇓1,5101072n/a
Position: (61.9363888888,-42.0677777777)

[Back]